Time;durP1;ratioP1;P1;durP2;ratioP2;P2;SDS_P1;SDS_P2;PMS_P1;PMS_P2;Temp;Humidity;BMP_temperature;BMP_pressure;BME280_temperature;BME280_humidity;BME280_pressure;Samples;Min_cycle;Max_cycle;Signal;HPM_P1;HPM_P2
2021/06/19 00:00:13;;;;;;;4.22;2.42;;;22.00;81.50;;;;;;2073282;28;20064;-85
2021/06/19 00:01:13;;;;;;;3.83;2.38;;;22.00;81.50;;;;;;2073672;28;20592;-85
2021/06/19 00:02:14;;;;;;;3.75;2.50;;;22.00;81.50;;;;;;2084901;28;20083;-85
2021/06/19 00:03:15;;;;;;;5.07;2.58;;;22.00;81.50;;;;;;2089510;28;20029;-85
2021/06/19 00:04:15;;;;;;;4.05;2.63;;;22.00;81.50;;;;;;2079615;28;20407;-85
2021/06/19 00:05:17;;;;;;;3.70;2.70;;;22.00;81.60;;;;;;2084598;28;20017;-86
2021/06/19 00:06:18;;;;;;;4.65;2.95;;;22.00;81.60;;;;;;2081345;28;20022;-85
2021/06/19 00:07:18;;;;;;;3.70;2.80;;;22.00;81.70;;;;;;2073211;28;20026;-85
2021/06/19 00:08:22;;;;;;;4.82;2.92;;;21.90;81.70;;;;;;2064741;28;20104;-85
2021/06/19 00:09:23;;;;;;;4.75;2.83;;;21.90;81.70;;;;;;2076045;28;20028;-85
2021/06/19 00:10:24;;;;;;;4.38;2.72;;;21.90;81.80;;;;;;2073197;28;20088;-85
2021/06/19 00:11:25;;;;;;;4.30;2.50;;;21.90;81.90;;;;;;2068856;28;20033;-85
2021/06/19 00:12:25;;;;;;;4.30;2.70;;;21.90;82.00;;;;;;2081379;28;20415;-85
2021/06/19 00:13:26;;;;;;;5.10;3.05;;;21.90;82.00;;;;;;2080625;28;20530;-84
2021/06/19 00:14:27;;;;;;;4.78;2.53;;;21.80;82.00;;;;;;2064795;28;20545;-84
2021/06/19 00:15:28;;;;;;;4.20;2.90;;;21.90;82.10;;;;;;2072924;28;20448;-85
2021/06/19 00:16:29;;;;;;;5.45;2.88;;;21.90;82.10;;;;;;2089506;28;20093;-84
2021/06/19 00:17:29;;;;;;;5.10;2.70;;;21.90;82.10;;;;;;2080613;28;20597;-85
2021/06/19 00:18:30;;;;;;;4.50;3.00;;;21.80;82.00;;;;;;2081201;28;20025;-85
2021/06/19 00:19:30;;;;;;;3.85;2.65;;;21.80;82.10;;;;;;2081259;28;20056;-85
2021/06/19 00:20:32;;;;;;;4.45;2.80;;;21.90;82.10;;;;;;2072925;28;20472;-85
2021/06/19 00:21:32;;;;;;;4.07;2.75;;;21.80;82.10;;;;;;2072910;28;20025;-85
2021/06/19 00:22:33;;;;;;;4.38;3.15;;;21.80;82.10;;;;;;2089429;28;20576;-85
2021/06/19 00:23:33;;;;;;;5.00;3.05;;;21.80;82.10;;;;;;2083711;28;20554;-85
2021/06/19 00:24:37;;;;;;;4.75;3.00;;;21.80;82.10;;;;;;2081234;28;20033;-85
2021/06/19 00:25:38;;;;;;;6.35;3.10;;;21.80;82.20;;;;;;2084423;28;20080;-85
2021/06/19 00:26:39;;;;;;;5.35;3.00;;;21.80;82.20;;;;;;2082130;28;20034;-85
2021/06/19 00:27:40;;;;;;;4.13;2.85;;;21.80;82.20;;;;;;2081053;28;20482;-85
2021/06/19 00:28:41;;;;;;;3.58;2.90;;;21.80;82.20;;;;;;2076581;28;20022;-85
2021/06/19 00:29:41;;;;;;;4.50;2.85;;;21.80;82.20;;;;;;2073032;28;20480;-85
2021/06/19 00:30:42;;;;;;;5.25;2.80;;;21.80;82.20;;;;;;2076179;28;20051;-85
2021/06/19 00:31:44;;;;;;;3.90;3.00;;;21.80;82.20;;;;;;2077886;28;20128;-84
2021/06/19 00:32:47;;;;;;;5.35;3.30;;;21.80;82.30;;;;;;2081312;28;20032;-85
2021/06/19 00:33:48;;;;;;;4.25;2.75;;;21.80;82.30;;;;;;2081227;28;20037;-85
2021/06/19 00:34:48;;;;;;;4.68;3.28;;;21.80;82.40;;;;;;2073303;28;20034;-85
2021/06/19 00:35:49;;;;;;;4.45;2.65;;;21.70;82.40;;;;;;2072749;28;20090;-85
2021/06/19 00:36:50;;;;;;;4.35;2.88;;;21.70;82.40;;;;;;2077240;28;20025;-85
2021/06/19 00:37:51;;;;;;;4.57;2.95;;;21.70;82.40;;;;;;2080298;28;20022;-85
2021/06/19 00:38:52;;;;;;;4.40;2.95;;;21.70;82.40;;;;;;2089106;28;20078;-84
2021/06/19 00:39:52;;;;;;;4.75;3.10;;;21.70;82.40;;;;;;2081795;28;20083;-85
2021/06/19 00:40:53;;;;;;;4.25;2.60;;;21.70;82.50;;;;;;2072051;28;20041;-86
2021/06/19 00:41:54;;;;;;;4.68;3.08;;;21.70;82.50;;;;;;2064011;28;20034;-85
2021/06/19 00:42:58;;;;;;;4.10;2.97;;;21.70;82.50;;;;;;2072573;28;20050;-86
2021/06/19 00:43:58;;;;;;;4.40;3.00;;;21.70;82.60;;;;;;2097334;28;20036;-86
2021/06/19 00:44:59;;;;;;;5.43;2.92;;;21.70;82.60;;;;;;2080566;28;20033;-86
2021/06/19 00:46:00;;;;;;;3.92;2.90;;;21.70;82.60;;;;;;2081367;28;20096;-85
2021/06/19 00:47:00;;;;;;;4.60;3.03;;;21.70;82.70;;;;;;2079833;28;20025;-85
2021/06/19 00:48:09;;;;;;;4.20;2.80;;;21.70;82.70;;;;;;2072845;28;20034;-85
2021/06/19 00:49:10;;;;;;;4.68;3.00;;;21.70;82.70;;;;;;2067036;28;20034;-85
2021/06/19 00:50:11;;;;;;;4.05;3.00;;;21.70;82.70;;;;;;2064825;28;20065;-85
2021/06/19 00:51:12;;;;;;;4.70;3.20;;;21.70;82.70;;;;;;2072037;28;20058;-86
2021/06/19 00:52:13;;;;;;;3.58;2.75;;;21.70;82.70;;;;;;2072371;28;20037;-85
2021/06/19 00:53:13;;;;;;;4.72;2.80;;;21.70;82.70;;;;;;2072230;28;20029;-86
2021/06/19 00:54:14;;;;;;;4.03;2.65;;;21.70;82.60;;;;;;2056321;28;20552;-85
2021/06/19 00:55:15;;;;;;;4.78;2.80;;;21.70;82.60;;;;;;2071591;28;20030;-84
2021/06/19 00:56:16;;;;;;;4.30;2.97;;;21.70;82.60;;;;;;2092787;28;20516;-85
2021/06/19 00:57:17;;;;;;;3.13;2.50;;;21.70;82.60;;;;;;2093665;28;20028;-85
2021/06/19 00:58:17;;;;;;;4.07;2.85;;;21.70;82.60;;;;;;2089256;28;20037;-86
2021/06/19 00:59:19;;;;;;;3.78;2.70;;;21.70;82.60;;;;;;2080760;28;20132;-85
2021/06/19 01:00:20;;;;;;;4.38;2.83;;;21.70;82.60;;;;;;2073029;28;20033;-85
2021/06/19 01:01:21;;;;;;;3.55;2.63;;;21.70;82.50;;;;;;2080480;28;20033;-85
2021/06/19 01:02:21;;;;;;;3.22;2.30;;;21.70;82.50;;;;;;2064812;28;20027;-86
2021/06/19 01:03:22;;;;;;;3.13;2.30;;;21.70;82.40;;;;;;2048041;29;20038;-85
2021/06/19 01:04:23;;;;;;;3.85;2.30;;;21.70;82.30;;;;;;2072173;28;20034;-85
2021/06/19 01:05:25;;;;;;;3.78;1.90;;;21.70;82.30;;;;;;2064378;28;20537;-86
2021/06/19 01:06:26;;;;;;;3.15;2.03;;;21.70;82.20;;;;;;2072585;28;20026;-85
2021/06/19 01:07:27;;;;;;;4.65;2.10;;;21.70;82.10;;;;;;2089320;28;20116;-85
2021/06/19 01:08:28;;;;;;;2.42;1.90;;;21.70;82.00;;;;;;2089340;28;20033;-85
2021/06/19 01:09:29;;;;;;;3.15;2.03;;;21.70;82.00;;;;;;2072912;28;20096;-85
2021/06/19 01:10:30;;;;;;;3.08;2.08;;;21.70;81.90;;;;;;2072434;28;20044;-85
2021/06/19 01:11:31;;;;;;;3.65;2.10;;;21.70;81.90;;;;;;2089281;28;20037;-85
2021/06/19 01:12:32;;;;;;;2.83;1.90;;;21.70;81.80;;;;;;2089037;28;20025;-85
2021/06/19 01:13:35;;;;;;;2.95;2.13;;;21.70;81.70;;;;;;2079938;28;20025;-85
2021/06/19 01:14:36;;;;;;;2.47;1.65;;;21.70;81.70;;;;;;2080698;28;20029;-85
2021/06/19 01:15:36;;;;;;;2.47;1.60;;;21.70;82.30;;;;;;2081718;28;20102;-85
2021/06/19 01:16:37;;;;;;;1.98;1.58;;;21.70;81.60;;;;;;2078027;28;20570;-85
2021/06/19 01:17:38;;;;;;;2.15;1.40;;;21.70;81.50;;;;;;2056866;28;20027;-85
2021/06/19 01:18:38;;;;;;;1.88;1.35;;;21.70;81.50;;;;;;2064771;28;20050;-85
2021/06/19 01:19:39;;;;;;;2.28;1.48;;;21.70;81.40;;;;;;2072788;28;20033;-85
2021/06/19 01:20:40;;;;;;;3.78;1.90;;;21.70;81.40;;;;;;2058933;28;20058;-85
2021/06/19 01:21:41;;;;;;;2.08;1.33;;;21.70;81.30;;;;;;2056393;28;20584;-84
2021/06/19 01:22:48;;;;;;;1.52;1.30;;;21.70;81.30;;;;;;2072916;28;20029;-84
2021/06/19 01:23:50;;;;;;;2.22;1.55;;;21.70;81.20;;;;;;2081323;28;20064;-85
2021/06/19 01:24:51;;;;;;;1.77;1.25;;;21.70;81.20;;;;;;2080829;28;20036;-84
2021/06/19 01:25:52;;;;;;;1.15;1.05;;;21.70;81.10;;;;;;2080849;28;20029;-85
2021/06/19 01:26:52;;;;;;;1.52;1.17;;;21.70;81.10;;;;;;2072867;28;20121;-85
2021/06/19 01:27:54;;;;;;;1.75;1.30;;;21.70;81.10;;;;;;2072799;28;20511;-85
2021/06/19 01:28:56;;;;;;;1.92;1.23;;;21.70;81.00;;;;;;2080865;28;20049;-85
2021/06/19 01:30:00;;;;;;;1.65;1.15;;;21.60;80.90;;;;;;2081222;28;20048;-85
2021/06/19 01:31:01;;;;;;;1.67;1.20;;;21.70;81.10;;;;;;2075379;28;20034;-85
2021/06/19 01:32:02;;;;;;;1.73;1.20;;;21.60;80.90;;;;;;2081296;28;20608;-85
2021/06/19 01:33:03;;;;;;;1.33;1.05;;;21.60;80.80;;;;;;2088993;28;20029;-85
2021/06/19 01:34:03;;;;;;;1.85;1.10;;;21.60;80.70;;;;;;2072716;28;20385;-85
2021/06/19 01:35:06;;;;;;;2.47;1.20;;;21.60;80.70;;;;;;2072635;28;20053;-85
2021/06/19 01:36:08;;;;;;;1.52;1.10;;;21.60;80.60;;;;;;2072960;28;20072;-85
2021/06/19 01:37:09;;;;;;;2.33;1.20;;;21.60;80.60;;;;;;2071532;28;20034;-86
2021/06/19 01:38:09;;;;;;;1.77;0.90;;;21.60;80.50;;;;;;2064714;28;20033;-84
2021/06/19 01:39:10;;;;;;;1.50;1.10;;;21.60;80.50;;;;;;2072731;28;20034;-85
2021/06/19 01:40:30;;;;;;;1.92;1.20;;;21.60;80.40;;;;;;2072352;28;20515;-85
2021/06/19 01:41:32;;;;;;;1.30;0.90;;;21.60;80.30;;;;;;2088210;28;20024;-85
2021/06/19 01:42:33;;;;;;;1.00;0.85;;;21.60;80.90;;;;;;2080682;28;20028;-85
2021/06/19 01:43:33;;;;;;;1.13;1.02;;;21.60;80.20;;;;;;2066670;28;20125;-85
2021/06/19 01:44:34;;;;;;;1.60;1.00;;;21.60;80.80;;;;;;2068979;28;20037;-85
2021/06/19 01:45:35;;;;;;;1.70;1.00;;;21.60;80.20;;;;;;2080441;28;20505;-84
2021/06/19 01:46:40;;;;;;;1.77;0.90;;;21.60;80.20;;;;;;2080727;28;20025;-85
2021/06/19 01:47:41;;;;;;;2.08;1.02;;;21.60;80.10;;;;;;2079639;28;20152;-85
2021/06/19 01:48:42;;;;;;;1.83;1.00;;;21.60;80.10;;;;;;2077668;28;20069;-85
2021/06/19 01:49:43;;;;;;;1.48;0.93;;;21.60;80.60;;;;;;2082465;28;20092;-84
2021/06/19 01:50:44;;;;;;;1.45;0.90;;;21.60;80.40;;;;;;2080701;28;20033;-84
2021/06/19 01:51:44;;;;;;;1.20;0.93;;;21.60;80.00;;;;;;2074273;28;20029;-85
2021/06/19 01:52:45;;;;;;;1.50;0.90;;;21.60;80.10;;;;;;2066319;28;20113;-85
2021/06/19 01:53:47;;;;;;;2.55;0.93;;;21.60;80.00;;;;;;2082316;28;20495;-84
2021/06/19 01:54:47;;;;;;;1.00;0.90;;;21.60;80.00;;;;;;2082164;28;20033;-86
2021/06/19 01:55:48;;;;;;;2.03;1.52;;;21.60;80.00;;;;;;2074065;28;20439;-86
2021/06/19 01:56:48;;;;;;;1.58;0.90;;;21.60;80.00;;;;;;2073281;28;20022;-85
2021/06/19 01:57:51;;;;;;;0.80;0.80;;;21.60;79.80;;;;;;2065925;28;20073;-85
2021/06/19 01:58:52;;;;;;;1.45;0.95;;;21.60;79.80;;;;;;2074462;28;20029;-85
2021/06/19 02:00:06;;;;;;;1.42;1.10;;;21.60;79.80;;;;;;2098737;28;20028;-85
2021/06/19 02:01:10;;;;;;;2.20;1.10;;;21.60;79.80;;;;;;2090614;28;20029;-85
2021/06/19 02:02:10;;;;;;;1.48;0.98;;;21.60;79.70;;;;;;2090431;28;20021;-85
2021/06/19 02:03:11;;;;;;;1.00;0.80;;;21.60;79.70;;;;;;2073779;28;20129;-85
2021/06/19 02:04:12;;;;;;;1.45;0.93;;;21.60;79.60;;;;;;2065053;28;20057;-85
2021/06/19 02:05:14;;;;;;;1.13;1.00;;;21.60;79.70;;;;;;2066763;28;20081;-85
2021/06/19 02:06:15;;;;;;;1.33;1.10;;;21.60;79.60;;;;;;2082306;28;20036;-85
2021/06/19 02:07:15;;;;;;;1.27;1.10;;;21.60;79.60;;;;;;2075993;28;20022;-86
2021/06/19 02:08:19;;;;;;;1.15;0.90;;;21.60;79.60;;;;;;2073845;28;20034;-85
2021/06/19 02:09:20;;;;;;;1.10;1.00;;;21.60;79.60;;;;;;2076780;28;20034;-86
2021/06/19 02:10:26;;;;;;;1.33;0.90;;;21.60;79.60;;;;;;2082341;28;20468;-85
2021/06/19 02:11:27;;;;;;;1.60;0.90;;;21.50;79.60;;;;;;2083107;28;20021;-86
2021/06/19 02:12:27;;;;;;;1.63;1.10;;;21.60;79.70;;;;;;2098890;28;20055;-86
2021/06/19 02:13:28;;;;;;;1.30;1.00;;;21.60;79.70;;;;;;2090580;28;20031;-86
2021/06/19 02:14:29;;;;;;;1.27;1.00;;;21.50;79.70;;;;;;2081594;28;20029;-85
2021/06/19 02:15:30;;;;;;;0.85;0.77;;;21.50;80.30;;;;;;2074161;28;20022;-86
2021/06/19 02:16:31;;;;;;;1.73;0.98;;;21.50;79.70;;;;;;2074318;28;20100;-86
2021/06/19 02:17:32;;;;;;;1.55;0.90;;;21.50;79.70;;;;;;2083378;28;20083;-85
2021/06/19 02:18:33;;;;;;;1.52;0.80;;;21.50;79.80;;;;;;2090402;28;20021;-85
2021/06/19 02:19:33;;;;;;;2.13;0.90;;;21.50;79.80;;;;;;2081987;28;20545;-85
2021/06/19 02:20:34;;;;;;;1.83;1.05;;;21.50;79.80;;;;;;2081507;28;20055;-85
2021/06/19 02:21:35;;;;;;;2.70;1.00;;;21.50;79.70;;;;;;2090651;28;20021;-85
2021/06/19 02:22:37;;;;;;;1.90;1.02;;;21.50;79.80;;;;;;2089666;28;20440;-85
2021/06/19 02:23:37;;;;;;;1.88;0.95;;;21.50;79.90;;;;;;2083197;28;20049;-85
2021/06/19 02:24:38;;;;;;;0.93;0.82;;;21.50;79.90;;;;;;2065867;28;20030;-85
2021/06/19 02:25:39;;;;;;;1.05;0.90;;;21.50;80.00;;;;;;2074072;28;20517;-85
2021/06/19 02:26:39;;;;;;;1.40;1.00;;;21.50;80.00;;;;;;2074015;28;20092;-85
2021/06/19 02:27:56;;;;;;;1.27;1.10;;;21.50;80.00;;;;;;2058792;28;20121;-85
2021/06/19 02:28:57;;;;;;;2.33;0.93;;;21.50;80.10;;;;;;2077668;28;20515;-85
2021/06/19 02:29:58;;;;;;;1.10;0.95;;;21.40;80.00;;;;;;2074188;28;20026;-85
2021/06/19 02:30:58;;;;;;;1.30;1.00;;;21.40;80.00;;;;;;2082199;28;20115;-85
2021/06/19 02:31:59;;;;;;;2.65;1.20;;;21.40;80.70;;;;;;2067235;28;20363;-85
2021/06/19 02:33:01;;;;;;;1.50;1.10;;;21.40;80.10;;;;;;2066137;28;20030;-85
2021/06/19 02:34:02;;;;;;;1.35;1.00;;;21.40;80.10;;;;;;2090260;28;20096;-85
2021/06/19 02:35:03;;;;;;;1.60;0.95;;;21.40;80.20;;;;;;2082125;28;20036;-85
2021/06/19 02:36:04;;;;;;;1.35;0.82;;;21.40;80.20;;;;;;2082131;28;20041;-85
2021/06/19 02:37:06;;;;;;;1.48;1.00;;;21.40;80.20;;;;;;2073662;28;20034;-85
2021/06/19 02:38:07;;;;;;;1.65;1.15;;;21.40;80.20;;;;;;2073931;28;20041;-85
2021/06/19 02:39:08;;;;;;;1.05;0.95;;;21.40;80.30;;;;;;2073748;28;20080;-85
2021/06/19 02:40:10;;;;;;;1.50;1.13;;;21.40;80.30;;;;;;2073526;28;20034;-86
2021/06/19 02:41:10;;;;;;;2.95;1.20;;;21.30;80.30;;;;;;2081700;28;20025;-85
2021/06/19 02:42:11;;;;;;;1.55;1.00;;;21.30;80.30;;;;;;2082206;28;20396;-86
2021/06/19 02:43:12;;;;;;;1.60;1.10;;;21.30;80.40;;;;;;2081638;28;20384;-86
2021/06/19 02:44:13;;;;;;;1.67;1.00;;;21.30;80.50;;;;;;2090443;28;20045;-86
2021/06/19 02:45:13;;;;;;;1.60;1.20;;;21.30;80.50;;;;;;2074047;28;20026;-86
2021/06/19 02:46:14;;;;;;;2.10;1.17;;;21.30;80.50;;;;;;2076287;28;20120;-85
2021/06/19 02:47:15;;;;;;;1.77;1.23;;;21.30;80.60;;;;;;2081815;28;20506;-86
2021/06/19 02:48:16;;;;;;;1.30;1.15;;;21.30;80.60;;;;;;2081768;28;20033;-86
2021/06/19 02:49:16;;;;;;;1.40;1.10;;;21.30;80.60;;;;;;2090159;28;20056;-86
2021/06/19 02:50:20;;;;;;;1.13;0.98;;;21.30;80.70;;;;;;2064448;28;20023;-85
2021/06/19 02:51:20;;;;;;;1.63;1.10;;;21.20;80.70;;;;;;2073718;28;20515;-86
2021/06/19 02:52:21;;;;;;;2.38;1.10;;;21.30;80.80;;;;;;2065824;28;20026;-86
2021/06/19 02:53:22;;;;;;;1.58;1.20;;;21.30;80.70;;;;;;2065782;28;20025;-86
2021/06/19 02:54:22;;;;;;;1.20;1.10;;;21.30;80.80;;;;;;2081871;28;20500;-86
2021/06/19 02:55:25;;;;;;;1.50;1.30;;;21.30;80.80;;;;;;2077487;28;20036;-86
2021/06/19 02:56:26;;;;;;;1.92;1.10;;;21.30;80.70;;;;;;2081598;28;20022;-86
2021/06/19 02:57:27;;;;;;;1.40;1.00;;;21.30;80.80;;;;;;2082079;28;20036;-85
2021/06/19 02:58:27;;;;;;;2.80;1.20;;;21.30;80.80;;;;;;2077485;28;20573;-86
2021/06/19 02:59:28;;;;;;;1.83;1.23;;;21.30;80.80;;;;;;2073470;28;20586;-86
2021/06/19 03:00:29;;;;;;;2.35;1.30;;;21.30;80.80;;;;;;2081368;28;20133;-85
2021/06/19 03:01:29;;;;;;;2.28;1.30;;;21.30;80.80;;;;;;2075758;28;20030;-86
2021/06/19 03:02:30;;;;;;;1.40;1.30;;;21.30;80.80;;;;;;2081951;28;20096;-86
2021/06/19 03:03:31;;;;;;;2.38;1.17;;;21.40;80.80;;;;;;2073760;28;20173;-86
2021/06/19 03:04:31;;;;;;;1.60;1.20;;;21.40;80.80;;;;;;2077139;28;20088;-86
2021/06/19 03:05:34;;;;;;;1.17;1.00;;;21.30;80.70;;;;;;2073651;28;20034;-85
2021/06/19 03:06:35;;;;;;;1.30;1.10;;;21.40;80.80;;;;;;2090201;28;20434;-85
2021/06/19 03:07:36;;;;;;;3.33;1.20;;;21.40;80.80;;;;;;2091979;28;20028;-85
2021/06/19 03:08:37;;;;;;;1.20;1.00;;;21.40;80.70;;;;;;2081860;28;20091;-85
2021/06/19 03:09:37;;;;;;;1.70;1.25;;;21.40;80.70;;;;;;2059731;28;20042;-85
2021/06/19 03:10:41;;;;;;;2.38;1.30;;;21.50;80.70;;;;;;2064484;28;20562;-84
2021/06/19 03:11:41;;;;;;;2.60;1.30;;;21.40;80.70;;;;;;2073567;28;20570;-84
2021/06/19 03:12:43;;;;;;;3.05;1.27;;;21.50;80.70;;;;;;2066736;28;20121;-84
2021/06/19 03:13:43;;;;;;;1.42;1.20;;;21.50;80.70;;;;;;2079092;28;20586;-84
2021/06/19 03:14:44;;;;;;;1.73;1.15;;;21.50;80.70;;;;;;2081102;28;20029;-84
2021/06/19 03:15:44;;;;;;;1.40;1.20;;;21.50;80.60;;;;;;2081660;28;20034;-84
2021/06/19 03:16:45;;;;;;;1.77;1.10;;;21.50;81.20;;;;;;2089568;28;20033;-84
2021/06/19 03:17:46;;;;;;;1.15;1.00;;;21.50;80.60;;;;;;2089984;28;20055;-85
2021/06/19 03:18:46;;;;;;;1.48;1.13;;;21.50;80.60;;;;;;2073255;28;20030;-85
2021/06/19 03:19:47;;;;;;;1.98;1.30;;;21.50;80.60;;;;;;2065438;28;20492;-85
2021/06/19 03:20:48;;;;;;;2.13;1.40;;;21.50;80.60;;;;;;2065265;28;20041;-85
2021/06/19 03:21:49;;;;;;;1.70;1.38;;;21.50;80.60;;;;;;2065160;28;20022;-85
2021/06/19 03:22:55;;;;;;;2.47;1.35;;;21.60;80.60;;;;;;2073515;28;20087;-85
2021/06/19 03:23:56;;;;;;;1.65;1.33;;;21.60;80.60;;;;;;2082594;28;20041;-86
2021/06/19 03:24:56;;;;;;;2.28;1.20;;;21.60;80.60;;;;;;2073911;28;20026;-85
2021/06/19 03:25:57;;;;;;;1.38;1.25;;;21.60;80.70;;;;;;2068150;28;20044;-85
2021/06/19 03:26:57;;;;;;;1.98;1.50;;;21.60;80.70;;;;;;2081557;28;20025;-85
2021/06/19 03:28:00;;;;;;;1.70;1.30;;;21.60;80.70;;;;;;2070247;28;20365;-84
2021/06/19 03:29:01;;;;;;;2.53;1.58;;;21.60;80.70;;;;;;2065801;28;20113;-85
2021/06/19 03:30:03;;;;;;;2.20;1.40;;;21.60;80.70;;;;;;2079122;28;20044;-85
2021/06/19 03:31:03;;;;;;;2.30;1.75;;;21.60;80.60;;;;;;2073389;28;20030;-84
2021/06/19 03:32:05;;;;;;;1.90;1.60;;;21.60;80.60;;;;;;2081192;28;20397;-84
2021/06/19 03:33:08;;;;;;;2.55;1.70;;;21.60;80.60;;;;;;2081681;28;20030;-84
2021/06/19 03:34:08;;;;;;;2.38;1.33;;;21.60;80.60;;;;;;2081490;28;20049;-85
2021/06/19 03:35:10;;;;;;;2.25;1.55;;;21.60;80.50;;;;;;2090139;28;20024;-85
2021/06/19 03:36:10;;;;;;;2.10;1.30;;;21.60;80.50;;;;;;2081770;28;20111;-85
2021/06/19 03:37:11;;;;;;;2.58;1.83;;;21.60;80.50;;;;;;2073972;28;20026;-85
2021/06/19 03:38:12;;;;;;;1.50;1.30;;;21.60;80.50;;;;;;2073460;28;20088;-86
2021/06/19 03:39:15;;;;;;;3.03;1.50;;;21.60;80.40;;;;;;2073650;28;20092;-85
2021/06/19 03:40:17;;;;;;;2.08;1.65;;;21.60;80.40;;;;;;2082074;28;20026;-85
2021/06/19 03:41:17;;;;;;;1.63;1.52;;;21.60;80.40;;;;;;2085875;28;20124;-86
2021/06/19 03:42:18;;;;;;;2.47;1.63;;;21.60;80.40;;;;;;2090061;28;20487;-86
2021/06/19 03:43:19;;;;;;;2.45;1.73;;;21.60;80.30;;;;;;2072939;28;20054;-87
2021/06/19 03:44:21;;;;;;;1.92;1.50;;;21.60;80.30;;;;;;2065231;28;20070;-86
2021/06/19 03:45:30;;;;;;;1.98;1.50;;;21.60;80.40;;;;;;2075035;28;20574;-86
2021/06/19 03:46:31;;;;;;;2.55;1.70;;;21.60;80.30;;;;;;2082802;28;20020;-86
2021/06/19 03:47:31;;;;;;;1.65;1.50;;;21.60;80.30;;;;;;2073499;28;20026;-86
2021/06/19 03:48:32;;;;;;;1.83;1.50;;;21.60;80.30;;;;;;2057000;28;20140;-86
2021/06/19 03:49:33;;;;;;;1.95;1.45;;;21.60;80.90;;;;;;2064514;28;20030;-86
2021/06/19 03:50:34;;;;;;;3.67;1.80;;;21.70;80.40;;;;;;2073852;28;20053;-86
2021/06/19 03:51:35;;;;;;;2.08;1.63;;;21.70;80.40;;;;;;2088491;28;20025;-86
2021/06/19 03:52:35;;;;;;;2.75;1.65;;;21.70;80.40;;;;;;2078812;28;20034;-86
2021/06/19 03:53:36;;;;;;;2.28;1.80;;;21.70;80.30;;;;;;2066266;28;20738;-86
2021/06/19 03:54:39;;;;;;;2.40;1.85;;;21.70;80.40;;;;;;2065314;28;20130;-86
2021/06/19 03:55:40;;;;;;;3.28;1.90;;;21.60;80.30;;;;;;2074286;28;20033;-86
2021/06/19 03:56:41;;;;;;;2.80;2.08;;;21.60;80.20;;;;;;2073970;28;20063;-87
2021/06/19 03:57:42;;;;;;;3.80;2.10;;;21.60;80.20;;;;;;2074362;28;20111;-87
2021/06/19 03:58:42;;;;;;;3.15;2.05;;;21.60;80.20;;;;;;2081827;28;20029;-85
2021/06/19 03:59:43;;;;;;;2.78;1.95;;;21.60;80.10;;;;;;2074212;28;20154;-86
2021/06/19 04:00:43;;;;;;;2.88;2.20;;;21.60;80.10;;;;;;2073291;28;20030;-86
2021/06/19 04:01:44;;;;;;;2.67;1.95;;;21.60;80.00;;;;;;2064562;28;20026;-86
2021/06/19 04:02:45;;;;;;;2.60;1.90;;;21.70;80.00;;;;;;2065122;28;20034;-85
2021/06/19 04:03:45;;;;;;;3.22;2.25;;;21.60;79.90;;;;;;2064925;28;20125;-86
2021/06/19 04:04:47;;;;;;;2.38;1.88;;;21.60;79.90;;;;;;2073321;28;20112;-86
2021/06/19 04:05:48;;;;;;;2.33;2.05;;;21.60;79.90;;;;;;2081582;28;20056;-86
2021/06/19 04:06:49;;;;;;;2.95;1.90;;;21.60;79.80;;;;;;2081385;28;20522;-85
2021/06/19 04:07:49;;;;;;;3.25;2.50;;;21.60;79.80;;;;;;2073777;28;20047;-85
2021/06/19 04:08:51;;;;;;;3.58;2.30;;;21.70;79.90;;;;;;2080250;28;20075;-85
2021/06/19 04:09:53;;;;;;;3.95;2.30;;;21.60;79.80;;;;;;2097825;28;20021;-86
2021/06/19 04:10:53;;;;;;;2.63;2.20;;;21.70;79.90;;;;;;2073153;28;20034;-85
2021/06/19 04:11:54;;;;;;;3.15;2.25;;;21.60;79.80;;;;;;2072895;28;20066;-86
2021/06/19 04:12:54;;;;;;;2.90;2.22;;;21.60;79.80;;;;;;2073166;28;20026;-85
2021/06/19 04:13:55;;;;;;;3.33;2.10;;;21.60;79.80;;;;;;2072343;28;20575;-86
2021/06/19 04:14:56;;;;;;;2.53;2.08;;;21.70;79.90;;;;;;2065188;28;20066;-86
2021/06/19 04:15:56;;;;;;;3.55;2.30;;;21.70;79.90;;;;;;2073231;28;20153;-85
2021/06/19 04:16:57;;;;;;;3.08;2.50;;;21.60;79.80;;;;;;2080561;28;20028;-85
2021/06/19 04:17:58;;;;;;;3.17;2.40;;;21.70;79.90;;;;;;2081390;28;20130;-86
2021/06/19 04:18:58;;;;;;;3.50;2.20;;;21.70;79.90;;;;;;2089508;28;20036;-85
2021/06/19 04:19:59;;;;;;;3.00;2.40;;;21.70;79.80;;;;;;2072615;28;20038;-85
2021/06/19 04:20:59;;;;;;;3.20;2.67;;;21.70;79.80;;;;;;2064926;28;20568;-85
2021/06/19 04:22:01;;;;;;;3.58;2.70;;;21.60;79.80;;;;;;2073609;28;20512;-86
2021/06/19 04:23:02;;;;;;;3.70;2.35;;;21.70;79.80;;;;;;2072668;28;20025;-85
2021/06/19 04:24:03;;;;;;;3.20;2.45;;;21.70;79.90;;;;;;2079865;28;20037;-86
2021/06/19 04:25:05;;;;;;;4.25;2.53;;;21.70;79.80;;;;;;2073127;28;20088;-85
2021/06/19 04:26:06;;;;;;;3.10;2.40;;;21.70;79.80;;;;;;2088999;28;20040;-85
2021/06/19 04:27:15;;;;;;;3.53;2.83;;;21.70;79.80;;;;;;2073206;28;20473;-86
2021/06/19 04:28:15;;;;;;;3.10;2.20;;;21.70;79.70;;;;;;2074851;28;20026;-85
2021/06/19 04:29:16;;;;;;;3.00;2.40;;;21.70;79.70;;;;;;2071919;28;20030;-85
2021/06/19 04:30:19;;;;;;;2.67;2.28;;;21.70;79.70;;;;;;2064768;28;20069;-85
2021/06/19 04:31:19;;;;;;;3.28;2.33;;;21.70;79.70;;;;;;2075283;28;20029;-85
2021/06/19 04:32:20;;;;;;;3.13;2.17;;;21.70;79.70;;;;;;2073013;28;20177;-85
2021/06/19 04:33:21;;;;;;;3.80;2.40;;;21.70;79.70;;;;;;2073089;28;20065;-85
2021/06/19 04:34:22;;;;;;;4.85;2.63;;;21.70;79.80;;;;;;2067518;28;20030;-85
2021/06/19 04:35:25;;;;;;;3.40;2.60;;;21.70;79.80;;;;;;2080976;28;20033;-86
2021/06/19 04:36:28;;;;;;;3.47;2.70;;;21.70;79.80;;;;;;2084871;28;20062;-86
2021/06/19 04:37:29;;;;;;;3.50;2.70;;;21.70;79.80;;;;;;2081467;28;20037;-86
2021/06/19 04:38:29;;;;;;;2.97;2.45;;;21.70;80.50;;;;;;2080829;28;20160;-86
2021/06/19 04:39:30;;;;;;;3.90;2.47;;;21.70;79.90;;;;;;2081173;28;20033;-87
2021/06/19 04:41:54;;;;;;;3.13;2.42;;;21.70;79.90;;;;;;2072652;28;20029;-86
2021/06/19 04:44:40;;;;;;;3.30;2.50;;;21.70;79.90;;;;;;2086371;28;20079;-86
2021/06/19 04:45:42;;;;;;;3.42;2.42;;;21.70;79.90;;;;;;2088195;28;20163;-86
2021/06/19 04:46:43;;;;;;;3.45;2.42;;;21.70;79.80;;;;;;2081169;28;20032;-86
2021/06/19 04:47:43;;;;;;;3.58;2.40;;;21.70;79.70;;;;;;2080981;28;20112;-86
2021/06/19 04:48:44;;;;;;;3.22;2.25;;;21.70;79.70;;;;;;2081092;28;20431;-86
2021/06/19 04:49:45;;;;;;;2.92;2.38;;;21.70;79.70;;;;;;2072636;28;20065;-86
2021/06/19 04:50:45;;;;;;;4.13;2.53;;;21.70;79.70;;;;;;2074771;28;20030;-85
2021/06/19 04:51:46;;;;;;;3.17;2.38;;;21.70;79.70;;;;;;2073955;28;20030;-86
2021/06/19 04:52:47;;;;;;;3.42;2.50;;;21.70;80.40;;;;;;2078322;28;20045;-85
2021/06/19 04:53:48;;;;;;;2.72;2.10;;;21.70;79.80;;;;;;2072884;28;20253;-85
2021/06/19 04:54:49;;;;;;;3.97;2.60;;;21.70;79.80;;;;;;2081209;28;20033;-86
2021/06/19 04:55:50;;;;;;;2.92;2.25;;;21.70;79.80;;;;;;2060435;28;20408;-86
2021/06/19 04:56:51;;;;;;;2.97;2.13;;;21.70;79.90;;;;;;2077462;28;20123;-86
2021/06/19 04:57:56;;;;;;;5.20;2.20;;;21.70;79.90;;;;;;2080949;28;20026;-86
2021/06/19 04:58:56;;;;;;;3.20;2.05;;;21.70;79.90;;;;;;2080516;28;20392;-85
2021/06/19 04:59:57;;;;;;;2.75;2.13;;;21.70;79.90;;;;;;2085459;28;20056;-86
2021/06/19 05:00:58;;;;;;;3.50;2.00;;;21.70;79.90;;;;;;2080659;28;20026;-86
2021/06/19 05:01:59;;;;;;;3.40;2.10;;;21.70;79.90;;;;;;2081211;28;20032;-86
2021/06/19 05:03:00;;;;;;;3.00;2.10;;;21.70;79.80;;;;;;2073065;28;20467;-86
2021/06/19 05:04:01;;;;;;;3.10;1.77;;;21.70;79.80;;;;;;2080833;28;20026;-86
2021/06/19 05:05:02;;;;;;;2.47;1.90;;;21.80;79.80;;;;;;2078909;28;20096;-86
2021/06/19 05:06:03;;;;;;;1.92;1.45;;;21.80;79.80;;;;;;2073109;28;20033;-86
2021/06/19 05:07:04;;;;;;;2.30;1.70;;;21.70;79.70;;;;;;2077753;28;20499;-86
2021/06/19 05:08:06;;;;;;;2.28;1.70;;;21.70;79.80;;;;;;2064962;28;20034;-86
2021/06/19 05:09:07;;;;;;;2.65;1.90;;;21.80;79.80;;;;;;2070216;28;20452;-86
2021/06/19 05:10:09;;;;;;;1.90;1.63;;;21.80;79.80;;;;;;2073215;28;20026;-86
2021/06/19 05:11:10;;;;;;;2.22;1.70;;;21.80;79.80;;;;;;2087531;28;20029;-86
2021/06/19 05:12:12;;;;;;;2.40;1.63;;;21.80;79.80;;;;;;2081347;28;20099;-86
2021/06/19 05:13:12;;;;;;;2.92;1.80;;;21.80;79.80;;;;;;2072813;28;20125;-86
2021/06/19 05:14:13;;;;;;;2.30;1.80;;;21.80;79.70;;;;;;2072831;28;20435;-86
2021/06/19 05:15:18;;;;;;;2.45;1.83;;;21.80;79.70;;;;;;2072711;28;20122;-86
2021/06/19 05:16:18;;;;;;;2.40;1.60;;;21.80;79.70;;;;;;2081142;28;20033;-85
2021/06/19 05:17:19;;;;;;;2.85;1.70;;;21.80;79.70;;;;;;2072994;28;20060;-86
2021/06/19 05:18:19;;;;;;;2.13;1.65;;;21.80;79.70;;;;;;2072952;28;20535;-86
2021/06/19 05:19:21;;;;;;;2.92;1.55;;;21.80;79.70;;;;;;2064955;28;20057;-87
2021/06/19 05:20:23;;;;;;;1.83;1.58;;;21.80;79.70;;;;;;2073152;28;20054;-87
2021/06/19 05:21:23;;;;;;;1.90;1.65;;;21.80;79.70;;;;;;2089254;28;20047;-87
2021/06/19 05:22:24;;;;;;;2.40;1.77;;;21.80;80.30;;;;;;2073034;28;20113;-87